Time;durP1;ratioP1;P1;durP2;ratioP2;P2;SDS_P1;SDS_P2;PMS_P1;PMS_P2;Temp;Humidity;BMP_temperature;BMP_pressure;BME280_temperature;BME280_humidity;BME280_pressure;Samples;Min_cycle;Max_cycle;Signal;HPM_P1;HPM_P2
2021/12/02 00:01:32;;;;;;;9.10;4.68;;;6.40;99.90;;;;;;5074404;28;20738;-44
2021/12/02 00:03:58;;;;;;;9.65;5.28;;;6.40;99.90;;;;;;5074421;28;20170;-44
2021/12/02 00:06:24;;;;;;;9.73;5.32;;;6.40;99.90;;;;;;5074913;28;20247;-44
2021/12/02 00:08:51;;;;;;;12.00;5.20;;;6.40;99.90;;;;;;5074235;28;20217;-44
2021/12/02 00:11:18;;;;;;;6.38;4.97;;;6.30;99.90;;;;;;5074256;28;20245;-44
2021/12/02 00:21:21;;;;;;;9.23;5.65;;;6.30;99.90;;;;;;5074270;28;20308;-44
2021/12/02 00:23:55;;;;;;;10.55;5.28;;;6.30;99.90;;;;;;5073991;28;20162;-44
2021/12/02 00:26:22;;;;;;;9.52;5.53;;;6.30;99.90;;;;;;5073020;28;20173;-45
2021/12/02 00:28:54;;;;;;;10.68;6.07;;;6.30;99.90;;;;;;5072689;28;20664;-44
2021/12/02 00:31:22;;;;;;;9.80;6.82;;;6.30;99.90;;;;;;5073893;28;20212;-44
2021/12/02 00:33:51;;;;;;;9.98;5.88;;;6.30;99.90;;;;;;5073784;28;20649;-45
2021/12/02 00:36:18;;;;;;;8.55;5.03;;;6.20;99.90;;;;;;5074107;28;20291;-44
2021/12/02 00:38:46;;;;;;;11.90;6.80;;;6.20;99.90;;;;;;5074060;28;20170;-45
2021/12/02 00:41:13;;;;;;;10.57;6.13;;;6.20;99.90;;;;;;5073896;28;20205;-44
2021/12/02 00:43:39;;;;;;;10.20;5.95;;;6.20;99.90;;;;;;5073689;28;20158;-44
2021/12/02 00:46:11;;;;;;;8.63;5.28;;;6.10;99.90;;;;;;5073877;28;20196;-44
2021/12/02 00:48:37;;;;;;;12.75;6.35;;;6.10;99.90;;;;;;5073859;28;20181;-45
2021/12/02 00:51:05;;;;;;;9.98;6.72;;;6.20;99.90;;;;;;5073542;28;20688;-45
2021/12/02 00:53:33;;;;;;;12.02;6.20;;;6.20;99.90;;;;;;5073295;28;20181;-45
2021/12/02 00:56:03;;;;;;;12.30;6.43;;;6.20;99.90;;;;;;5073686;28;20223;-45
2021/12/02 00:58:31;;;;;;;11.32;6.47;;;6.20;99.90;;;;;;5073400;28;20660;-44
2021/12/02 01:00:57;;;;;;;12.98;6.47;;;6.10;99.90;;;;;;5073515;28;20224;-45
2021/12/02 01:03:25;;;;;;;13.95;6.32;;;6.10;99.90;;;;;;5073942;28;20521;-45
2021/12/02 01:05:52;;;;;;;9.05;5.93;;;6.10;99.90;;;;;;5073118;28;20180;-45
2021/12/02 01:08:19;;;;;;;11.65;6.70;;;6.10;99.90;;;;;;5073279;28;20206;-44
2021/12/02 01:10:45;;;;;;;9.15;5.90;;;6.10;99.90;;;;;;5073416;28;20182;-44
2021/12/02 01:13:11;;;;;;;9.18;6.45;;;6.10;99.90;;;;;;5073144;28;20158;-44
2021/12/02 01:15:37;;;;;;;6.88;4.75;;;6.10;99.90;;;;;;5073022;28;20179;-44
2021/12/02 01:18:03;;;;;;;12.45;5.60;;;6.10;99.90;;;;;;5073039;28;20192;-44
2021/12/02 01:20:31;;;;;;;8.60;5.05;;;6.10;99.90;;;;;;5072845;28;20197;-44
2021/12/02 01:22:59;;;;;;;9.43;5.47;;;6.10;99.90;;;;;;5072991;28;20208;-44
2021/12/02 01:25:26;;;;;;;8.38;5.50;;;6.10;99.90;;;;;;5073100;28;20170;-44
2021/12/02 01:27:52;;;;;;;9.88;5.63;;;6.10;99.90;;;;;;5073246;28;20253;-45
2021/12/02 01:30:18;;;;;;;7.18;4.82;;;6.10;99.90;;;;;;5072789;28;20217;-44
2021/12/02 01:32:47;;;;;;;7.50;5.72;;;6.10;99.90;;;;;;5072959;28;20578;-44
2021/12/02 01:35:15;;;;;;;10.60;5.82;;;6.10;99.90;;;;;;5072629;28;20173;-44
2021/12/02 01:37:41;;;;;;;7.63;5.15;;;6.10;99.90;;;;;;5072897;28;20524;-44
2021/12/02 01:40:07;;;;;;;9.77;5.97;;;6.10;99.90;;;;;;5072773;28;20211;-44
2021/12/02 01:42:39;;;;;;;9.48;6.00;;;6.10;99.90;;;;;;5072477;28;20446;-44
2021/12/02 01:45:05;;;;;;;8.80;6.32;;;6.00;99.90;;;;;;5072578;28;20170;-44
2021/12/02 01:47:32;;;;;;;7.70;4.25;;;6.10;99.90;;;;;;5072473;28;20190;-44
2021/12/02 01:50:03;;;;;;;10.55;6.80;;;6.10;99.90;;;;;;5072633;28;20165;-45
2021/12/02 01:52:31;;;;;;;11.02;5.75;;;6.10;99.90;;;;;;5072604;28;20185;-44
2021/12/02 01:55:15;;;;;;;8.38;6.40;;;6.10;99.90;;;;;;5072807;28;20162;-45
2021/12/02 01:57:46;;;;;;;9.65;6.00;;;6.10;99.90;;;;;;5072300;28;20302;-44
2021/12/02 02:00:19;;;;;;;12.70;6.88;;;6.10;99.90;;;;;;5072420;28;20207;-44
2021/12/02 02:02:45;;;;;;;13.00;7.20;;;6.10;99.90;;;;;;5072460;28;20200;-44
2021/12/02 02:05:13;;;;;;;10.98;6.40;;;6.10;99.90;;;;;;5072191;28;20706;-44
2021/12/02 02:08:03;;;;;;;8.82;5.45;;;6.10;99.90;;;;;;5072415;28;20197;-44
2021/12/02 02:10:35;;;;;;;11.63;7.20;;;6.10;99.90;;;;;;5064610;28;20200;-44
2021/12/02 02:13:05;;;;;;;11.00;6.68;;;6.10;99.90;;;;;;5072061;28;20257;-44
2021/12/02 02:15:31;;;;;;;11.75;5.80;;;6.10;99.90;;;;;;5072054;28;20171;-44
2021/12/02 02:18:02;;;;;;;10.88;7.38;;;6.10;99.90;;;;;;5071942;28;20166;-44
2021/12/02 02:20:47;;;;;;;12.73;7.20;;;6.00;99.90;;;;;;5072151;28;20212;-45
2021/12/02 02:23:13;;;;;;;12.30;5.88;;;6.00;99.90;;;;;;5071994;28;20186;-45
2021/12/02 02:25:39;;;;;;;10.60;6.53;;;6.00;99.90;;;;;;5072257;28;20181;-44
2021/12/02 02:28:05;;;;;;;9.07;6.15;;;6.10;99.90;;;;;;5072176;28;20195;-44
2021/12/02 02:30:31;;;;;;;12.52;6.28;;;6.00;99.90;;;;;;5071883;28;20174;-44
2021/12/02 02:32:57;;;;;;;10.38;5.22;;;6.00;99.90;;;;;;5071800;28;20202;-44
2021/12/02 02:35:22;;;;;;;9.23;5.22;;;6.00;99.90;;;;;;5071572;28;20267;-44
2021/12/02 02:37:48;;;;;;;10.82;5.20;;;5.90;99.90;;;;;;5071730;28;20177;-44
2021/12/02 02:40:15;;;;;;;9.75;5.22;;;5.90;99.90;;;;;;5071656;28;20247;-44
2021/12/02 02:42:45;;;;;;;7.43;4.75;;;5.90;99.90;;;;;;5071738;28;20170;-44
2021/12/02 02:45:11;;;;;;;11.23;5.05;;;5.90;99.90;;;;;;5071801;28;20162;-44
2021/12/02 02:47:36;;;;;;;7.80;4.63;;;5.90;99.90;;;;;;5071727;28;20251;-44
2021/12/02 02:50:02;;;;;;;7.57;4.70;;;5.90;99.90;;;;;;5071635;28;20523;-45
2021/12/02 02:52:30;;;;;;;14.18;4.93;;;5.90;99.90;;;;;;5071833;28;20536;-44
2021/12/02 02:54:55;;;;;;;8.57;5.13;;;5.90;99.90;;;;;;5072247;28;20209;-44
2021/12/02 02:57:25;;;;;;;5.75;5.10;;;5.90;99.90;;;;;;5072191;28;20198;-44
2021/12/02 03:00:04;;;;;;;12.85;4.53;;;5.90;99.90;;;;;;5071553;28;20208;-44
2021/12/02 03:02:49;;;;;;;8.43;5.15;;;5.90;99.90;;;;;;5071885;28;20201;-44
2021/12/02 03:07:47;;;;;;;8.80;6.22;;;5.90;99.90;;;;;;5071822;28;20162;-44
2021/12/02 03:10:41;;;;;;;10.40;6.18;;;5.90;99.90;;;;;;5071561;28;20232;-44
2021/12/02 03:13:15;;;;;;;11.18;6.60;;;5.90;99.90;;;;;;5071844;28;20166;-44
2021/12/02 03:18:27;;;;;;;12.57;6.40;;;5.90;99.90;;;;;;5071789;28;20215;-45
2021/12/02 03:20:52;;;;;;;7.07;5.18;;;5.90;99.90;;;;;;5071715;28;20206;-44
2021/12/02 03:23:18;;;;;;;11.02;5.72;;;5.90;99.90;;;;;;5071422;28;20155;-44
2021/12/02 03:25:43;;;;;;;10.70;5.50;;;5.90;99.90;;;;;;5071316;28;20212;-44
2021/12/02 03:28:09;;;;;;;6.78;4.30;;;5.90;99.90;;;;;;5071386;28;20557;-44
2021/12/02 03:30:35;;;;;;;8.30;4.90;;;5.80;99.90;;;;;;5071490;28;20178;-44
2021/12/02 03:33:00;;;;;;;8.70;4.60;;;5.80;99.90;;;;;;5071309;28;20174;-44
2021/12/02 03:35:26;;;;;;;11.63;5.07;;;5.80;99.90;;;;;;5071607;28;20168;-44
2021/12/02 03:37:51;;;;;;;9.48;5.15;;;5.90;99.90;;;;;;5071513;28;20174;-44
2021/12/02 03:40:17;;;;;;;9.35;5.05;;;5.80;99.90;;;;;;5071156;28;20245;-44
2021/12/02 03:42:50;;;;;;;9.20;4.57;;;5.80;99.90;;;;;;5071456;28;20179;-44
2021/12/02 03:45:16;;;;;;;11.10;3.92;;;5.80;99.90;;;;;;5071134;28;20688;-44
2021/12/02 03:47:42;;;;;;;7.90;3.95;;;5.80;99.90;;;;;;5071540;28;20158;-44
2021/12/02 03:50:08;;;;;;;6.05;3.70;;;5.70;99.90;;;;;;5074720;28;20547;-44
2021/12/02 03:52:33;;;;;;;4.20;2.90;;;5.70;99.90;;;;;;5074635;28;20675;-44
2021/12/02 03:54:59;;;;;;;5.13;2.95;;;5.60;99.90;;;;;;5074574;28;20209;-44
2021/12/02 03:57:28;;;;;;;2.78;1.95;;;5.60;99.90;;;;;;5074906;28;20170;-44
2021/12/02 03:59:54;;;;;;;4.78;2.28;;;5.50;99.90;;;;;;5075037;28;20558;-44
2021/12/02 04:02:19;;;;;;;5.43;2.95;;;5.50;99.90;;;;;;5074446;28;20185;-44
2021/12/02 04:04:45;;;;;;;5.35;3.03;;;5.50;99.90;;;;;;5074654;28;20170;-44
2021/12/02 04:07:11;;;;;;;2.75;2.40;;;5.50;99.90;;;;;;5074358;28;20244;-44
2021/12/02 04:09:40;;;;;;;6.30;2.85;;;5.60;99.90;;;;;;5074078;28;20300;-44
2021/12/02 04:12:13;;;;;;;7.00;3.25;;;5.60;99.90;;;;;;5074563;28;20174;-44
2021/12/02 04:14:45;;;;;;;6.80;3.38;;;5.60;99.90;;;;;;5074502;28;20170;-44
2021/12/02 04:17:13;;;;;;;7.38;3.47;;;5.60;99.90;;;;;;5074457;28;20534;-44
2021/12/02 04:19:38;;;;;;;7.32;3.95;;;5.60;99.90;;;;;;5074318;28;20199;-44
2021/12/02 04:22:05;;;;;;;7.18;3.88;;;5.60;99.90;;;;;;5074400;28;20173;-44
2021/12/02 04:24:30;;;;;;;5.50;3.40;;;5.60;99.90;;;;;;5074017;28;20541;-44
2021/12/02 04:26:56;;;;;;;8.18;3.85;;;5.60;99.90;;;;;;5074369;28;20170;-44
2021/12/02 04:29:25;;;;;;;5.53;3.70;;;5.60;99.90;;;;;;5074532;28;20241;-44
2021/12/02 04:31:51;;;;;;;8.40;4.40;;;5.60;99.90;;;;;;5073957;28;20211;-44
2021/12/02 04:34:18;;;;;;;10.27;5.05;;;5.60;99.90;;;;;;5074149;28;20180;-44
2021/12/02 04:36:43;;;;;;;7.60;4.40;;;5.60;99.90;;;;;;5073851;28;20232;-44
2021/12/02 04:39:09;;;;;;;6.50;4.78;;;5.60;99.90;;;;;;5073772;28;20169;-44
2021/12/02 04:41:35;;;;;;;6.18;4.18;;;5.50;99.90;;;;;;5073725;28;20201;-44
2021/12/02 04:44:01;;;;;;;5.15;3.92;;;5.50;99.90;;;;;;5073903;28;20173;-44
2021/12/02 04:46:27;;;;;;;7.43;4.88;;;5.50;99.90;;;;;;5073628;28;20173;-44
2021/12/02 04:48:53;;;;;;;6.63;3.75;;;5.60;99.90;;;;;;5074196;28;20166;-45
2021/12/02 04:51:19;;;;;;;7.60;3.42;;;5.50;99.90;;;;;;5073753;28;20177;-44
2021/12/02 04:53:44;;;;;;;5.47;3.25;;;5.50;99.90;;;;;;5073450;28;20177;-44
2021/12/02 04:56:10;;;;;;;5.32;2.67;;;5.50;99.90;;;;;;5073540;28;20170;-44
2021/12/02 04:58:35;;;;;;;9.45;2.67;;;5.40;99.90;;;;;;5072972;28;20169;-44
2021/12/02 05:01:01;;;;;;;5.53;2.05;;;5.30;99.90;;;;;;5073239;28;20201;-43
2021/12/02 05:03:26;;;;;;;3.97;1.65;;;5.40;99.90;;;;;;5073308;28;20177;-44
2021/12/02 05:05:52;;;;;;;8.02;1.67;;;5.30;99.90;;;;;;5073569;28;20172;-45
2021/12/02 05:08:17;;;;;;;5.82;1.70;;;5.40;99.90;;;;;;5073087;28;20206;-45
2021/12/02 05:10:43;;;;;;;6.40;2.00;;;5.30;99.90;;;;;;5071768;28;20173;-45
2021/12/02 05:13:09;;;;;;;4.85;1.90;;;5.30;99.90;;;;;;5073093;28;20633;-46
2021/12/02 05:15:35;;;;;;;6.35;1.50;;;5.30;99.90;;;;;;5073059;28;20218;-47
2021/12/02 05:18:00;;;;;;;2.92;1.58;;;5.30;99.90;;;;;;5072922;28;20162;-46
2021/12/02 05:20:26;;;;;;;2.47;1.52;;;5.30;99.90;;;;;;5072894;28;20209;-44
2021/12/02 05:22:52;;;;;;;7.13;1.70;;;5.30;99.90;;;;;;5073082;28;20173;-46
2021/12/02 05:25:17;;;;;;;12.93;2.13;;;5.30;99.90;;;;;;5072825;28;20206;-46
2021/12/02 05:27:43;;;;;;;1.92;1.40;;;5.20;99.90;;;;;;5072768;28;20162;-47
2021/12/02 05:30:09;;;;;;;4.93;1.42;;;5.20;99.90;;;;;;5072974;28;20253;-46
2021/12/02 05:32:35;;;;;;;7.50;1.95;;;5.20;99.90;;;;;;5072390;28;20536;-45
2021/12/02 05:35:01;;;;;;;2.80;1.48;;;5.20;99.90;;;;;;5072713;28;20250;-46
2021/12/02 05:37:27;;;;;;;2.70;1.80;;;5.10;99.90;;;;;;5072654;28;20170;-46
2021/12/02 05:39:53;;;;;;;2.60;1.50;;;5.10;99.90;;;;;;5072865;28;20617;-46
2021/12/02 05:42:18;;;;;;;3.58;1.83;;;5.10;99.90;;;;;;5072590;28;20194;-46
2021/12/02 05:44:45;;;;;;;4.47;1.60;;;5.10;99.90;;;;;;5072514;28;20608;-46
2021/12/02 05:47:11;;;;;;;7.25;2.00;;;5.10;99.90;;;;;;5072754;28;20277;-45
2021/12/02 05:49:36;;;;;;;7.35;1.63;;;5.10;99.90;;;;;;5072380;28;20197;-44
2021/12/02 05:52:02;;;;;;;5.50;2.33;;;5.10;99.90;;;;;;5072546;28;20169;-44
2021/12/02 05:54:28;;;;;;;4.35;2.17;;;5.00;99.90;;;;;;5070941;28;20166;-44
2021/12/02 05:56:53;;;;;;;5.13;1.58;;;4.90;99.90;;;;;;5072576;28;20222;-44
2021/12/02 05:59:19;;;;;;;2.92;1.40;;;4.90;99.90;;;;;;5072214;28;20207;-45
2021/12/02 06:01:44;;;;;;;3.53;1.30;;;4.90;99.90;;;;;;5072062;28;20563;-44
2021/12/02 06:04:10;;;;;;;5.38;1.63;;;4.90;99.90;;;;;;5072085;28;20170;-44
2021/12/02 06:06:36;;;;;;;2.65;1.60;;;4.90;99.90;;;;;;5072259;28;20170;-44
2021/12/02 06:09:04;;;;;;;2.58;1.20;;;4.80;99.90;;;;;;5071891;28;20292;-44
2021/12/02 06:11:29;;;;;;;5.18;1.98;;;4.80;99.90;;;;;;5071163;28;20174;-44
2021/12/02 06:13:55;;;;;;;4.63;3.00;;;4.80;99.90;;;;;;5072239;28;20173;-45
2021/12/02 06:16:21;;;;;;;5.15;2.15;;;4.90;99.90;;;;;;5072600;28;20170;-44
2021/12/02 06:18:47;;;;;;;8.43;3.00;;;4.80;99.90;;;;;;5072272;28;20215;-44
2021/12/02 06:21:13;;;;;;;4.15;2.13;;;4.80;99.90;;;;;;5071910;28;20673;-44
2021/12/02 06:23:40;;;;;;;4.50;2.50;;;4.80;99.90;;;;;;5071975;28;20172;-44
2021/12/02 06:26:07;;;;;;;4.90;2.22;;;4.80;99.90;;;;;;5071867;28;20162;-44
2021/12/02 06:28:33;;;;;;;5.53;2.50;;;4.80;99.90;;;;;;5071966;28;20163;-44
2021/12/02 06:31:01;;;;;;;4.32;3.00;;;4.90;99.90;;;;;;5070614;28;20178;-44
2021/12/02 06:33:27;;;;;;;5.63;2.75;;;4.90;99.90;;;;;;5071888;28;20206;-45
2021/12/02 06:35:53;;;;;;;2.90;2.08;;;4.90;99.90;;;;;;5072518;28;20205;-46
2021/12/02 06:38:18;;;;;;;4.53;2.70;;;4.90;99.90;;;;;;5069700;28;20176;-43
2021/12/02 06:40:45;;;;;;;7.80;2.78;;;4.90;99.90;;;;;;5069437;28;20243;-44
2021/12/02 06:43:14;;;;;;;8.13;2.92;;;4.90;99.90;;;;;;5070503;28;20158;-42
2021/12/02 06:45:39;;;;;;;8.13;3.35;;;4.90;99.90;;;;;;5070414;28;20174;-41
2021/12/02 06:48:05;;;;;;;6.10;2.80;;;4.90;99.90;;;;;;5070477;28;20174;-43
2021/12/02 06:50:33;;;;;;;4.70;3.63;;;4.90;99.90;;;;;;5069356;28;20633;-44
2021/12/02 06:52:59;;;;;;;5.07;2.25;;;4.90;99.90;;;;;;5069856;28;20174;-44
2021/12/02 06:55:25;;;;;;;8.75;3.17;;;4.90;99.90;;;;;;5070613;28;20236;-47
2021/12/02 06:57:51;;;;;;;6.20;3.50;;;4.90;99.90;;;;;;5070472;28;20253;-43
2021/12/02 07:00:18;;;;;;;8.93;3.58;;;4.90;99.90;;;;;;5070242;28;20236;-46
2021/12/02 07:02:44;;;;;;;9.00;4.05;;;4.90;99.90;;;;;;5070410;28;20595;-44
2021/12/02 07:05:11;;;;;;;6.55;3.00;;;4.90;99.90;;;;;;5070141;28;20176;-46
2021/12/02 07:07:37;;;;;;;7.72;3.40;;;4.80;99.90;;;;;;5070015;28;20166;-45
2021/12/02 07:10:25;;;;;;;13.73;3.10;;;4.80;99.90;;;;;;5070017;28;20308;-43
2021/12/02 07:12:57;;;;;;;6.20;2.63;;;4.80;99.90;;;;;;5070736;28;20174;-48
2021/12/02 07:15:29;;;;;;;4.50;1.98;;;4.70;99.90;;;;;;5070642;28;20169;-48
2021/12/02 07:18:12;;;;;;;9.52;1.88;;;4.70;99.90;;;;;;5070363;28;20228;-43
2021/12/02 07:20:38;;;;;;;4.18;2.10;;;4.60;99.90;;;;;;5070230;28;20239;-51
2021/12/02 07:23:04;;;;;;;5.85;1.80;;;4.70;99.90;;;;;;5072620;28;20167;-46
2021/12/02 07:25:30;;;;;;;3.22;1.63;;;4.60;99.90;;;;;;5073748;28;20166;-46
2021/12/02 07:27:56;;;;;;;3.05;1.20;;;4.60;99.90;;;;;;5074019;28;20192;-44
2021/12/02 07:30:22;;;;;;;1.00;0.47;;;4.60;99.90;;;;;;5074138;28;20669;-45
2021/12/02 07:32:53;;;;;;;1.73;1.25;;;4.50;99.90;;;;;;5073894;28;20579;-45
2021/12/02 07:35:18;;;;;;;3.50;1.33;;;4.50;99.90;;;;;;5074024;28;20582;-46
2021/12/02 07:37:52;;;;;;;2.53;1.58;;;4.40;99.90;;;;;;5073540;28;20261;-45
2021/12/02 07:40:20;;;;;;;2.33;1.90;;;4.50;99.90;;;;;;5073756;28;20544;-47
2021/12/02 07:42:48;;;;;;;6.50;2.47;;;4.50;99.90;;;;;;5070042;28;20188;-45
2021/12/02 07:45:14;;;;;;;5.50;2.00;;;4.50;99.90;;;;;;5072295;28;20170;-45
2021/12/02 07:47:41;;;;;;;2.38;2.03;;;4.50;99.90;;;;;;5072216;28;20170;-46
2021/12/02 07:50:10;;;;;;;3.60;2.45;;;4.50;99.90;;;;;;5073595;28;20178;-45
2021/12/02 07:52:44;;;;;;;4.75;2.70;;;4.50;99.90;;;;;;5073257;28;20170;-45
2021/12/02 07:55:12;;;;;;;6.57;2.95;;;4.50;99.90;;;;;;5073518;28;20208;-44
2021/12/02 07:57:40;;;;;;;6.78;3.25;;;4.60;99.90;;;;;;5073270;28;20201;-45
2021/12/02 08:00:07;;;;;;;4.30;3.15;;;4.60;99.90;;;;;;5073150;28;20669;-45
2021/12/02 08:02:34;;;;;;;5.03;3.33;;;4.50;99.90;;;;;;5073484;28;20261;-45
2021/12/02 08:04:59;;;;;;;4.88;3.63;;;4.40;99.90;;;;;;5072954;28;20673;-45
2021/12/02 08:07:25;;;;;;;4.10;3.20;;;4.40;99.90;;;;;;5073622;28;20201;-47
2021/12/02 08:09:51;;;;;;;9.63;4.68;;;4.40;99.90;;;;;;5073290;28;20209;-47
2021/12/02 08:12:16;;;;;;;5.75;3.38;;;4.50;99.90;;;;;;5072977;28;20505;-47
2021/12/02 08:14:42;;;;;;;7.07;3.83;;;4.50;99.90;;;;;;5073136;28;20545;-47
2021/12/02 08:17:07;;;;;;;5.20;3.75;;;4.50;99.90;;;;;;5072869;28;20735;-47
2021/12/02 08:19:33;;;;;;;9.27;4.68;;;4.40;99.90;;;;;;5072733;28;20249;-46
2021/12/02 08:21:58;;;;;;;7.78;4.68;;;4.50;99.90;;;;;;5072667;28;20254;-46
2021/12/02 08:24:25;;;;;;;7.55;4.88;;;4.60;99.90;;;;;;5073091;28;20173;-45
2021/12/02 08:26:52;;;;;;;7.10;4.72;;;4.50;99.90;;;;;;5072933;28;20698;-46
2021/12/02 08:29:17;;;;;;;6.07;4.47;;;4.50;99.90;;;;;;5072832;28;20719;-47
2021/12/02 08:31:43;;;;;;;6.10;4.40;;;4.60;99.90;;;;;;5073027;28;20253;-45
2021/12/02 08:34:09;;;;;;;7.35;4.35;;;4.60;99.90;;;;;;5072015;28;20169;-45
2021/12/02 08:36:45;;;;;;;8.57;4.57;;;4.60;99.90;;;;;;5072531;28;20166;-45
2021/12/02 08:39:16;;;;;;;7.45;4.78;;;4.60;99.90;;;;;;5072645;28;20192;-46
2021/12/02 08:41:45;;;;;;;7.43;3.92;;;4.50;99.90;;;;;;5071500;28;20238;-45
2021/12/02 08:44:11;;;;;;;5.90;4.40;;;4.50;99.90;;;;;;5072546;28;20246;-46
2021/12/02 08:46:37;;;;;;;4.80;2.83;;;4.50;99.90;;;;;;5072403;28;20162;-47
2021/12/02 08:49:04;;;;;;;8.07;4.30;;;4.50;99.90;;;;;;5072171;28;20172;-46
2021/12/02 08:51:29;;;;;;;3.90;3.50;;;4.40;99.90;;;;;;5072177;28;20176;-45
2021/12/02 08:53:55;;;;;;;4.80;4.20;;;4.40;99.90;;;;;;5072517;28;20527;-45
2021/12/02 08:56:20;;;;;;;6.32;4.72;;;4.40;99.90;;;;;;5072086;28;20624;-45
2021/12/02 08:58:46;;;;;;;6.07;4.97;;;4.40;99.90;;;;;;5072291;28;20173;-46
2021/12/02 09:01:13;;;;;;;5.65;4.43;;;4.40;99.90;;;;;;5071881;28;20202;-46
2021/12/02 09:03:38;;;;;;;6.93;4.25;;;4.40;99.90;;;;;;5072016;28;20169;-46
2021/12/02 09:06:08;;;;;;;7.68;3.85;;;4.40;99.90;;;;;;5071966;28;20538;-46
2021/12/02 09:08:35;;;;;;;6.22;4.10;;;4.50;99.90;;;;;;5071891;28;20229;-46
2021/12/02 09:11:00;;;;;;;7.28;4.68;;;4.50;99.90;;;;;;5071749;28;20645;-46
2021/12/02 09:13:26;;;;;;;7.40;4.43;;;4.50;99.90;;;;;;5071715;28;20170;-45
2021/12/02 09:15:51;;;;;;;6.40;3.47;;;4.50;99.90;;;;;;5072058;28;20563;-46
2021/12/02 09:18:17;;;;;;;5.90;3.72;;;4.50;99.90;;;;;;5071655;28;20158;-45
2021/12/02 09:20:43;;;;;;;6.97;3.72;;;4.50;99.90;;;;;;5071531;28;20205;-46
2021/12/02 09:23:09;;;;;;;5.68;4.20;;;4.50;99.90;;;;;;5071457;28;20544;-46
2021/12/02 09:25:34;;;;;;;8.68;4.13;;;4.70;99.90;;;;;;5071552;28;20170;-46
2021/12/02 09:28:00;;;;;;;5.80;3.72;;;4.80;99.90;;;;;;5071731;28;20176;-46
2021/12/02 09:30:26;;;;;;;4.93;3.92;;;4.80;99.90;;;;;;5071761;28;20173;-46
2021/12/02 09:32:52;;;;;;;3.92;2.88;;;4.80;99.90;;;;;;5071862;28;20173;-46
2021/12/02 09:35:18;;;;;;;4.53;3.40;;;4.90;99.90;;;;;;5071679;28;20166;-47
2021/12/02 09:37:44;;;;;;;3.25;2.95;;;4.80;99.90;;;;;;5071250;28;20252;-46
2021/12/02 09:40:12;;;;;;;2.80;2.50;;;4.80;99.90;;;;;;5071258;28;20201;-46
2021/12/02 09:42:40;;;;;;;3.42;1.75;;;4.70;99.90;;;;;;5067786;28;20668;-46
2021/12/02 09:45:06;;;;;;;2.60;2.20;;;4.70;99.90;;;;;;5089334;28;20184;-46
2021/12/02 09:47:37;;;;;;;3.63;2.42;;;4.70;99.90;;;;;;5091639;28;20169;-47
2021/12/02 09:50:08;;;;;;;3.60;2.70;;;4.70;99.90;;;;;;5091429;28;20161;-46
2021/12/02 09:52:40;;;;;;;4.78;2.95;;;4.60;99.90;;;;;;5091288;28;20161;-46
2021/12/02 09:57:47;;;;;;;3.08;2.22;;;4.70;99.90;;;;;;5091533;28;20179;-46
2021/12/02 10:00:18;;;;;;;3.00;2.58;;;4.80;99.90;;;;;;5091227;28;20268;-46
2021/12/02 10:02:53;;;;;;;3.20;2.90;;;4.80;99.90;;;;;;5089842;28;20577;-46
2021/12/02 10:05:35;;;;;;;3.03;2.72;;;4.90;99.90;;;;;;5091226;28;20219;-46
2021/12/02 10:08:05;;;;;;;4.35;2.33;;;5.00;99.90;;;;;;5090878;28;20165;-47
2021/12/02 10:10:34;;;;;;;5.07;2.60;;;5.00;99.90;;;;;;5091262;28;20181;-46
2021/12/02 10:13:25;;;;;;;5.13;2.30;;;5.10;99.90;;;;;;5091319;28;20177;-46
2021/12/02 10:19:04;;;;;;;3.05;1.83;;;4.80;99.90;;;;;;5087936;28;20188;-47
2021/12/02 10:21:38;;;;;;;4.30;2.20;;;4.60;99.90;;;;;;5091148;28;20214;-45
2021/12/02 10:24:12;;;;;;;2.08;1.98;;;4.70;99.90;;;;;;5090965;28;20222;-48
2021/12/02 10:26:43;;;;;;;4.70;2.13;;;4.80;99.90;;;;;;5090823;28;20192;-44
2021/12/02 10:29:11;;;;;;;2.70;2.10;;;4.80;99.90;;;;;;5090739;28;20565;-44
2021/12/02 10:31:38;;;;;;;2.22;2.03;;;4.90;99.90;;;;;;5091000;28;20172;-44
2021/12/02 10:34:07;;;;;;;6.63;2.30;;;5.10;99.90;;;;;;5089402;28;20674;-45
2021/12/02 10:36:37;;;;;;;2.80;2.08;;;5.30;99.90;;;;;;5090927;28;20185;-45
2021/12/02 10:39:14;;;;;;;2.33;2.10;;;5.30;99.90;;;;;;5090684;28;20206;-45
2021/12/02 10:41:44;;;;;;;2.88;1.48;;;5.50;99.90;;;;;;5089301;28;20236;-47
2021/12/02 10:44:19;;;;;;;3.22;1.63;;;5.50;99.90;;;;;;5090997;28;20256;-47
2021/12/02 10:47:06;;;;;;;2.10;1.75;;;5.50;99.90;;;;;;5090635;28;20171;-47
2021/12/02 10:49:42;;;;;;;2.28;1.60;;;5.70;99.90;;;;;;5090888;28;20201;-48
2021/12/02 10:52:11;;;;;;;4.75;1.50;;;5.90;99.90;;;;;;5090784;28;20188;-46
2021/12/02 10:54:41;;;;;;;2.33;1.90;;;6.00;99.90;;;;;;5090422;28;20169;-47
2021/12/02 10:57:17;;;;;;;4.20;1.80;;;5.90;99.90;;;;;;5091625;28;20629;-47
2021/12/02 10:59:48;;;;;;;4.43;1.80;;;5.90;99.90;;;;;;5094772;28;20218;-48
2021/12/02 11:02:18;;;;;;;4.65;1.63;;;5.90;99.90;;;;;;5094817;28;20548;-47
2021/12/02 11:04:48;;;;;;;3.92;1.63;;;5.90;99.90;;;;;;5094782;28;20165;-48
2021/12/02 11:07:40;;;;;;;2.15;1.48;;;5.80;99.90;;;;;;5094708;28;20180;-48
2021/12/02 11:10:10;;;;;;;5.25;1.33;;;5.70;99.90;;;;;;5091411;28;20216;-47
2021/12/02 11:12:38;;;;;;;1.38;1.27;;;5.70;99.90;;;;;;5094414;28;20177;-48
2021/12/02 11:15:18;;;;;;;7.22;1.33;;;5.70;99.90;;;;;;5094335;28;20170;-47
2021/12/02 11:17:49;;;;;;;3.30;1.30;;;5.70;99.90;;;;;;5094024;28;20169;-46
2021/12/02 11:20:34;;;;;;;2.90;1.63;;;5.70;99.90;;;;;;5094348;28;20201;-46
2021/12/02 11:23:03;;;;;;;4.25;1.63;;;5.60;99.90;;;;;;5092755;28;20172;-47
2021/12/02 11:25:31;;;;;;;4.57;1.50;;;5.70;99.90;;;;;;5094135;28;20167;-46
2021/12/02 11:27:56;;;;;;;2.47;1.52;;;5.70;99.90;;;;;;5094122;28;20194;-45
2021/12/02 11:30:27;;;;;;;3.72;1.98;;;5.70;99.90;;;;;;5094263;28;20173;-46
2021/12/02 11:32:58;;;;;;;2.47;1.20;;;5.70;99.90;;;;;;5094000;28;20633;-47
2021/12/02 11:35:31;;;;;;;2.97;1.92;;;5.80;99.90;;;;;;5094410;28;20532;-46
2021/12/02 11:38:09;;;;;;;2.75;1.92;;;5.60;99.90;;;;;;5093694;28;20165;-46
2021/12/02 11:40:45;;;;;;;7.45;1.85;;;5.80;99.90;;;;;;5093805;28;20243;-46
2021/12/02 11:43:13;;;;;;;3.53;2.05;;;5.70;99.90;;;;;;5093437;28;20205;-46
2021/12/02 11:45:48;;;;;;;3.13;2.00;;;5.70;99.90;;;;;;5076740;28;20201;-46
2021/12/02 11:48:22;;;;;;;2.90;1.73;;;5.70;99.90;;;;;;5072729;28;20257;-46
2021/12/02 11:50:50;;;;;;;3.83;1.75;;;5.70;99.90;;;;;;5073299;28;20187;-46
2021/12/02 11:53:21;;;;;;;5.28;2.10;;;5.50;99.90;;;;;;5073211;28;20579;-47
2021/12/02 11:55:49;;;;;;;5.47;2.10;;;5.60;99.90;;;;;;5073216;28;20285;-47
2021/12/02 11:58:15;;;;;;;3.83;2.15;;;5.50;99.90;;;;;;5071906;28;20166;-47
2021/12/02 12:00:44;;;;;;;6.50;2.60;;;5.50;99.90;;;;;;5072188;28;20248;-46
2021/12/02 12:03:26;;;;;;;7.65;2.50;;;5.50;99.90;;;;;;5073489;28;20186;-47
2021/12/02 12:05:56;;;;;;;8.70;3.08;;;5.40;99.90;;;;;;5073649;28;20193;-47
2021/12/02 12:08:39;;;;;;;2.42;1.88;;;5.50;99.90;;;;;;5072284;28;20237;-46
2021/12/02 12:11:28;;;;;;;5.50;2.47;;;5.30;99.90;;;;;;5073099;28;20538;-46
2021/12/02 12:14:05;;;;;;;6.90;2.67;;;5.20;99.90;;;;;;5073297;28;20166;-47
2021/12/02 12:16:35;;;;;;;2.75;2.50;;;5.30;99.90;;;;;;5072875;28;20172;-47
2021/12/02 12:19:17;;;;;;;2.33;2.13;;;5.50;99.90;;;;;;5072877;28;20216;-48
2021/12/02 12:21:50;;;;;;;5.90;2.58;;;5.50;99.90;;;;;;5072717;28;20227;-47
2021/12/02 12:24:17;;;;;;;3.33;2.30;;;5.40;99.90;;;;;;5072811;28;20169;-47
2021/12/02 12:26:45;;;;;;;2.92;2.70;;;5.40;99.90;;;;;;5073063;28;20222;-46
2021/12/02 12:29:13;;;;;;;3.40;2.35;;;5.40;99.90;;;;;;5072690;28;20613;-47
2021/12/02 12:32:03;;;;;;;4.53;2.85;;;5.30;99.90;;;;;;5072646;28;20178;-46
2021/12/02 12:34:43;;;;;;;3.92;2.45;;;5.40;99.90;;;;;;5072316;28;20209;-49
2021/12/02 12:37:26;;;;;;;5.10;2.50;;;5.40;99.90;;;;;;5072652;28;20173;-48
2021/12/02 12:40:23;;;;;;;6.85;3.03;;;5.50;99.90;;;;;;5073105;28;20580;-48
2021/12/02 12:43:17;;;;;;;2.80;2.60;;;5.40;99.90;;;;;;5072401;28;20185;-46
2021/12/02 12:45:44;;;;;;;2.08;1.90;;;5.30;99.90;;;;;;5072396;28;20231;-47
2021/12/02 12:48:24;;;;;;;4.13;2.60;;;5.20;99.90;;;;;;5072452;28;20262;-46
2021/12/02 12:50:50;;;;;;;6.60;3.00;;;5.10;99.90;;;;;;5072279;28;20168;-47
2021/12/02 12:53:16;;;;;;;3.17;2.70;;;5.30;99.90;;;;;;5072290;28;20166;-48
2021/12/02 12:55:52;;;;;;;3.22;2.92;;;5.30;99.90;;;;;;5068119;28;20170;-46
2021/12/02 12:58:23;;;;;;;2.45;2.25;;;5.30;99.90;;;;;;5072419;28;20251;-46
2021/12/02 13:01:04;;;;;;;7.95;2.50;;;5.30;99.90;;;;;;5072081;28;20201;-47
2021/12/02 13:03:34;;;;;;;4.47;2.35;;;5.30;99.90;;;;;;5072480;28;20192;-47
2021/12/02 13:06:09;;;;;;;3.25;2.53;;;5.30;99.90;;;;;;5071927;28;20637;-47
2021/12/02 13:08:45;;;;;;;6.88;2.22;;;5.30;99.90;;;;;;5071761;28;20696;-47
2021/12/02 13:11:13;;;;;;;4.60;2.30;;;5.20;99.90;;;;;;5071903;28;20207;-46
2021/12/02 13:13:40;;;;;;;5.28;2.72;;;5.20;99.90;;;;;;5071959;28;20661;-47
2021/12/02 13:16:19;;;;;;;3.25;2.60;;;5.30;99.90;;;;;;5071863;28;20249;-46
2021/12/02 13:18:51;;;;;;;6.22;2.83;;;5.10;99.90;;;;;;5071751;28;20196;-47
2021/12/02 13:21:29;;;;;;;4.38;2.38;;;5.10;99.90;;;;;;5069833;28;20209;-46
2021/12/02 13:24:01;;;;;;;3.55;2.83;;;5.00;99.90;;;;;;5072224;28;20252;-46